St Maud — ONGM — position and weather

sailwx.info

Track history (hours):
 
Tides and Currents Weather Stations Pressure Air Temp Water Temp Dewpoint Dewpoint Depression Visibility Wind Speed Wind Dir Waves Ship Positions

St Maud

Last reported at 2014-Jul-30 13:30 UTC. Time now 2014-Jul-30 17:13 UTC.
Position N 43°01' E 003°04'.

Length 117 m; draft 6.1 m.

Type: Ship. MMSI: 205572000.

Date/timePositionNaut miles runAvg speedWind from/ knotsBaromVisibWave heightAir tempDewpointWater temp
2014-Jul-30 13:30N 43°01' E 003°04'0 0.0
2014-Jul-30 11:18N 43°01' E 003°04'0 0.0
2014-Jul-30 09:27N 43°01' E 003°04'0 0.0
2014-Jul-30 08:27N 43°01' E 003°04'0 0.0
2014-Jul-30 06:33N 43°01' E 003°03'8 8.1
2014-Jul-30 05:33N 42°59' E 003°14'1110.6
2014-Jul-30 04:33N 42°60' E 003°29'1111.1
2014-Jul-30 03:33N 43°02' E 003°43'1110.7
2014-Jul-30 02:34N 43°04' E 003°58'1111.4
2014-Jul-30 01:33N 43°05' E 004°13'1110.6
2014-Jul-30 00:34N 43°07' E 004°28'1111.5
2014-Jul-29 23:34N 43°09' E 004°43'1212.3
2014-Jul-29 22:33N 43°12' E 004°59'1111.0
2014-Jul-29 21:34N 43°23' E 004°58'2 0.1
2014-Jul-28 19:33N 43°24' E 004°60'0 0.3
2014-Jul-28 18:33N 43°24' E 004°59'2 2.3
2014-Jul-28 17:32N 43°24' E 004°56'0 0.0
2014-Jul-28 16:32N 43°24' E 004°56'0 0.0
2014-Jul-28 15:32N 43°24' E 004°56'0 0.0
2014-Jul-28 14:33N 43°24' E 004°56'6 5.9
2014-Jul-28 13:33N 43°19' E 004°60'1010.2
2014-Jul-28 12:33N 43°09' E 004°60'1313.1
2014-Jul-28 11:33N 42°58' E 004°50'1413.1
2014-Jul-28 10:31N 42°48' E 004°38'1211.9
2014-Jul-28 09:31N 42°38' E 004°28'1312.7
2014-Jul-28 08:30N 42°28' E 004°17'1313.2
2014-Jul-28 07:33N 42°18' E 004°06'1313.3
2014-Jul-28 06:33N 42°08' E 003°56'1312.9
2014-Jul-28 05:33N 41°58' E 003°45'1312.6
2014-Jul-28 04:33N 41°48' E 003°34'1612.7
2014-Jul-28 03:20N 41°35' E 003°22'1012.8
2014-Jul-28 02:33N 41°27' E 003°14'1413.1
2014-Jul-28 01:28N 41°16' E 003°03'1313.6
2014-Jul-28 00:32N 41°06' E 002°52'1313.7
2014-Jul-27 23:33N 40°56' E 002°41'1413.7
2014-Jul-27 22:33N 40°45' E 002°30'1413.9
2014-Jul-27 21:33N 40°34' E 002°19'1313.5
2014-Jul-27 20:33N 40°23' E 002°08'1413.8
2014-Jul-27 19:33N 40°13' E 001°57'1413.7
2014-Jul-27 18:33N 40°02' E 001°45'1413.7
2014-Jul-27 17:33N 39°51' E 001°35'1413.6
2014-Jul-27 16:33N 39°40' E 001°24'4112.9
2014-Jul-27 13:20N 39°07' E 000°52'10012.5
2014-Jul-27 05:20N 37°45' W 000°21'1012.0
2014-Jul-27 04:32N 37°37' W 000°28'4812.0
2014-Jul-27 00:33N 37°04' W 001°12'2412.0
2014-Jul-26 22:33N 36°48' W 001°34'18812.1
2014-Jul-26 07:06N 35°59' W 005°19'  
Track history (hours):
 
Tides and Currents Weather Stations Pressure Air Temp Water Temp Dewpoint Dewpoint Depression Visibility Wind Speed Wind Dir Waves Ship Positions

St Maud

Last reported at 2014-Jul-30 13:30 UTC. Time now 2014-Jul-30 17:13 UTC.
Position N 43°01' E 003°04'.

Length 117 m; draft 6.1 m.

Type: Ship. MMSI: 205572000.

Date/timePositionNaut miles runAvg speedWind from/ knotsBaromVisibWave heightAir tempDewpointWater temp
2014-Jul-30 13:30N 43°01' E 003°04'0 0.0
2014-Jul-30 11:18N 43°01' E 003°04'0 0.0
2014-Jul-30 09:27N 43°01' E 003°04'0 0.0
2014-Jul-30 08:27N 43°01' E 003°04'0 0.0
2014-Jul-30 06:33N 43°01' E 003°03'8 8.1
2014-Jul-30 05:33N 42°59' E 003°14'1110.6
2014-Jul-30 04:33N 42°60' E 003°29'1111.1
2014-Jul-30 03:33N 43°02' E 003°43'1110.7
2014-Jul-30 02:34N 43°04' E 003°58'1111.4
2014-Jul-30 01:33N 43°05' E 004°13'1110.6
2014-Jul-30 00:34N 43°07' E 004°28'1111.5
2014-Jul-29 23:34N 43°09' E 004°43'1212.3
2014-Jul-29 22:33N 43°12' E 004°59'1111.0
2014-Jul-29 21:34N 43°23' E 004°58'2 0.1
2014-Jul-28 19:33N 43°24' E 004°60'0 0.3
2014-Jul-28 18:33N 43°24' E 004°59'2 2.3
2014-Jul-28 17:32N 43°24' E 004°56'0 0.0
2014-Jul-28 16:32N 43°24' E 004°56'0 0.0
2014-Jul-28 15:32N 43°24' E 004°56'0 0.0
2014-Jul-28 14:33N 43°24' E 004°56'6 5.9
2014-Jul-28 13:33N 43°19' E 004°60'1010.2
2014-Jul-28 12:33N 43°09' E 004°60'1313.1
2014-Jul-28 11:33N 42°58' E 004°50'1413.1
2014-Jul-28 10:31N 42°48' E 004°38'1211.9
2014-Jul-28 09:31N 42°38' E 004°28'1312.7
2014-Jul-28 08:30N 42°28' E 004°17'1313.2
2014-Jul-28 07:33N 42°18' E 004°06'1313.3
2014-Jul-28 06:33N 42°08' E 003°56'1312.9
2014-Jul-28 05:33N 41°58' E 003°45'1312.6
2014-Jul-28 04:33N 41°48' E 003°34'1612.7
2014-Jul-28 03:20N 41°35' E 003°22'1012.8
2014-Jul-28 02:33N 41°27' E 003°14'1413.1
2014-Jul-28 01:28N 41°16' E 003°03'1313.6
2014-Jul-28 00:32N 41°06' E 002°52'1313.7
2014-Jul-27 23:33N 40°56' E 002°41'1413.7
2014-Jul-27 22:33N 40°45' E 002°30'1413.9
2014-Jul-27 21:33N 40°34' E 002°19'1313.5
2014-Jul-27 20:33N 40°23' E 002°08'1413.8
2014-Jul-27 19:33N 40°13' E 001°57'1413.7
2014-Jul-27 18:33N 40°02' E 001°45'1413.7
2014-Jul-27 17:33N 39°51' E 001°35'1413.6
2014-Jul-27 16:33N 39°40' E 001°24'4112.9
2014-Jul-27 13:20N 39°07' E 000°52'10012.5
2014-Jul-27 05:20N 37°45' W 000°21'1012.0
2014-Jul-27 04:32N 37°37' W 000°28'4812.0
2014-Jul-27 00:33N 37°04' W 001°12'2412.0
2014-Jul-26 22:33N 36°48' W 001°34'18812.1
2014-Jul-26 07:06N 35°59' W 005°19'  

Dump ship's entire track history